createdAt,value
2022-10-05T00:02:23.853Z,47.25
2022-10-05T00:04:56.089Z,48.90
2022-10-05T00:10:00.250Z,62.72
2022-10-05T00:12:29.640Z,67.40
2022-10-05T00:15:00.320Z,59.17
2022-10-05T00:17:30.472Z,59.47
2022-10-05T00:19:57.067Z,65.00
2022-10-05T00:22:31.799Z,61.58
2022-10-05T00:25:01.128Z,62.35
2022-10-05T00:27:38.001Z,56.72
2022-10-05T00:30:12.946Z,65.38
2022-10-05T00:32:40.489Z,72.15
2022-10-05T00:35:07.681Z,76.60
2022-10-05T00:37:34.356Z,78.90
2022-10-05T00:40:01.503Z,72.28
2022-10-05T00:42:55.023Z,72.30
2022-10-05T00:45:27.430Z,67.95
2022-10-05T00:48:12.763Z,63.55
2022-10-05T00:50:54.521Z,58.67
2022-10-05T00:58:30.524Z,55.03
2022-10-05T01:01:13.069Z,53.33
2022-10-05T01:03:57.837Z,52.38
2022-10-05T01:06:52.355Z,52.58
2022-10-05T01:09:41.063Z,49.97
2022-10-05T01:12:22.112Z,48.88
2022-10-05T01:15:03.763Z,45.42
2022-10-05T01:17:55.332Z,48.50
2022-10-05T01:20:53.174Z,46.25
2022-10-05T01:23:52.872Z,46.55
2022-10-05T01:26:42.593Z,43.67
2022-10-05T01:29:25.495Z,41.70
2022-10-05T01:32:00.111Z,44.10
2022-10-05T01:34:43.704Z,45.90
2022-10-05T01:37:26.844Z,42.45
2022-10-05T01:40:02.674Z,42.53
2022-10-05T01:42:29.167Z,45.33
2022-10-05T01:45:17.030Z,43.00
2022-10-05T01:47:55.008Z,44.58
2022-10-05T01:50:53.972Z,41.15
2022-10-05T01:53:29.064Z,40.20
2022-10-05T01:56:01.564Z,40.33
2022-10-05T01:59:05.710Z,39.17
2022-10-05T02:01:43.113Z,41.08
2022-10-05T02:04:59.889Z,40.95
2022-10-05T02:07:43.742Z,40.92
2022-10-05T02:10:19.447Z,40.53
2022-10-05T02:12:50.437Z,41.08
2022-10-05T02:15:24.330Z,43.27
2022-10-05T02:17:57.531Z,44.17
2022-10-05T02:22:42.485Z,41.50
2022-10-05T02:25:14.373Z,43.40
2022-10-05T02:27:51.492Z,36.97
2022-10-05T02:30:19.418Z,38.88
2022-10-05T02:32:58.673Z,38.13
2022-10-05T02:35:25.961Z,32.92
2022-10-05T02:38:11.336Z,32.65
2022-10-05T02:40:53.659Z,32.05
2022-10-05T02:46:01.595Z,32.55
2022-10-05T02:48:44.542Z,30.35
2022-10-05T02:51:23.088Z,34.42
2022-10-05T02:53:59.250Z,34.80
2022-10-05T02:56:48.781Z,34.78
2022-10-05T02:59:35.285Z,33.60
2022-10-05T03:02:18.371Z,36.58
2022-10-05T03:04:59.005Z,31.63
2022-10-05T03:07:56.452Z,40.65
2022-10-05T03:10:42.073Z,40.83
2022-10-05T03:13:23.908Z,46.13
2022-10-05T03:16:15.597Z,53.83
2022-10-05T03:18:51.229Z,55.47
2022-10-05T03:21:53.769Z,50.95
2022-10-05T03:24:48.487Z,48.97
2022-10-05T03:27:38.194Z,47.28
2022-10-05T03:30:16.142Z,43.65
2022-10-05T03:32:43.461Z,45.55
2022-10-05T03:35:23.537Z,48.47
2022-10-05T03:37:56.355Z,49.45
2022-10-05T03:40:51.941Z,48.38
2022-10-05T03:43:34.283Z,52.50
2022-10-05T03:46:08.617Z,45.47
2022-10-05T03:49:13.193Z,50.47
2022-10-05T03:51:49.556Z,42.25
2022-10-05T03:54:28.945Z,40.95
2022-10-05T03:57:00.359Z,40.58
2022-10-05T04:02:06.494Z,41.85
2022-10-05T04:04:39.733Z,33.05
2022-10-05T04:07:21.887Z,29.23
2022-10-05T04:09:53.003Z,27.70
2022-10-05T04:12:35.918Z,25.20
2022-10-05T04:15:26.007Z,25.23
2022-10-05T04:18:00.837Z,25.80
2022-10-05T04:20:42.866Z,25.23
2022-10-05T04:23:39.709Z,26.23
2022-10-05T04:26:11.441Z,61.63
2022-10-05T04:28:41.664Z,58.95
2022-10-05T04:31:15.795Z,57.25
2022-10-05T04:33:59.186Z,58.13
2022-10-05T04:36:40.540Z,56.08
2022-10-05T04:39:34.971Z,59.08
2022-10-05T04:42:19.639Z,55.03
2022-10-05T04:45:07.130Z,58.30
2022-10-05T04:47:51.535Z,58.33
2022-10-05T04:53:33.391Z,53.47
2022-10-05T04:56:20.189Z,50.25
2022-10-05T04:59:08.460Z,47.58
2022-10-05T05:01:59.603Z,47.13
2022-10-05T05:04:37.712Z,49.40
2022-10-05T05:07:41.608Z,52.83
2022-10-05T05:10:39.663Z,52.97
2022-10-05T05:13:41.732Z,54.88
2022-10-05T05:16:32.658Z,48.55
2022-10-05T05:19:14.860Z,48.85
2022-10-05T05:22:01.223Z,53.97
2022-10-05T05:24:59.910Z,54.15
2022-10-05T05:27:45.456Z,56.78
2022-10-05T05:30:41.603Z,56.10
2022-10-05T05:33:19.203Z,62.42
2022-10-05T05:35:56.516Z,74.93
2022-10-05T05:38:48.883Z,67.53
2022-10-05T05:41:39.443Z,63.60
2022-10-05T05:44:18.480Z,62.42
2022-10-05T05:47:03.383Z,66.05
2022-10-05T05:50:07.345Z,67.35
2022-10-05T05:52:43.020Z,70.10
2022-10-05T05:55:20.886Z,83.80
2022-10-05T05:58:16.979Z,88.45
2022-10-05T06:00:55.752Z,78.85
2022-10-05T06:03:31.736Z,75.93
2022-10-05T06:06:04.677Z,65.50
2022-10-05T06:08:48.526Z,62.90
2022-10-05T06:11:31.811Z,60.67
2022-10-05T06:14:05.204Z,58.35
2022-10-05T06:16:33.715Z,59.95
2022-10-05T06:19:13.958Z,65.28
2022-10-05T06:21:47.813Z,56.38
2022-10-05T06:24:29.785Z,50.47
2022-10-05T06:27:24.640Z,58.95
2022-10-05T06:29:59.041Z,52.67
2022-10-05T06:32:32.267Z,57.25
2022-10-05T06:35:17.297Z,49.45
2022-10-05T06:38:12.875Z,55.03
2022-10-05T06:40:58.653Z,54.97
2022-10-05T06:43:43.347Z,58.90
2022-10-05T06:46:31.249Z,58.28
2022-10-05T06:49:45.507Z,62.67
2022-10-05T06:52:46.504Z,56.40
2022-10-05T06:55:23.184Z,54.60
2022-10-05T06:57:58.756Z,54.80
2022-10-05T07:00:54.158Z,62.63
2022-10-05T07:03:35.440Z,55.42
2022-10-05T07:06:16.857Z,54.67
2022-10-05T07:08:54.352Z,46.53
2022-10-05T07:11:33.428Z,45.67
2022-10-05T07:14:14.437Z,43.47
2022-10-05T07:16:50.741Z,43.83
2022-10-05T07:19:29.497Z,42.53
2022-10-05T07:24:45.228Z,39.67
2022-10-05T07:27:11.838Z,38.22
2022-10-05T07:29:41.486Z,39.70
2022-10-05T07:32:24.586Z,41.95
2022-10-05T07:35:37.674Z,36.38
2022-10-05T07:38:32.600Z,34.28
2022-10-05T07:41:13.497Z,34.15
2022-10-05T07:44:02.818Z,30.85
2022-10-05T07:46:43.734Z,27.90
2022-10-05T07:49:33.786Z,27.65
2022-10-05T07:52:02.961Z,29.15
2022-10-05T07:54:45.387Z,27.67
2022-10-05T07:57:30.521Z,24.80
2022-10-05T08:00:05.673Z,22.67
2022-10-05T08:02:58.464Z,24.27
2022-10-05T08:05:42.240Z,29.35
2022-10-05T08:08:52.414Z,29.33
2022-10-05T08:11:30.363Z,24.98
2022-10-05T08:14:10.702Z,26.08
2022-10-05T08:16:38.560Z,22.02
2022-10-05T08:19:24.480Z,21.98
2022-10-05T08:21:58.408Z,18.50
2022-10-05T08:24:39.151Z,16.98
2022-10-05T08:27:15.721Z,16.52
2022-10-05T08:30:04.296Z,16.85
2022-10-05T08:32:38.545Z,17.67
2022-10-05T08:35:25.020Z,15.85
2022-10-05T08:37:52.704Z,14.45
2022-10-05T08:40:19.162Z,15.23
2022-10-05T08:43:05.765Z,13.85
2022-10-05T08:45:50.832Z,13.75
2022-10-05T08:48:42.242Z,12.93
2022-10-05T08:51:33.567Z,13.10
2022-10-05T08:54:18.452Z,13.27
2022-10-05T08:56:58.799Z,13.50
2022-10-05T08:59:40.748Z,11.70
2022-10-05T09:02:38.977Z,11.90
2022-10-05T09:05:31.041Z,11.80
2022-10-05T09:08:15.670Z,11.98
2022-10-05T09:11:03.795Z,11.52
2022-10-05T09:13:33.346Z,11.45
2022-10-05T09:16:38.467Z,12.10
2022-10-05T09:19:43.813Z,12.52
2022-10-05T09:22:32.091Z,12.00
2022-10-05T09:25:09.816Z,12.13
2022-10-05T09:27:39.001Z,12.98
2022-10-05T09:30:33.389Z,10.80
2022-10-05T09:33:21.152Z,12.27
2022-10-05T09:36:21.834Z,11.63
2022-10-05T09:39:17.669Z,11.98
2022-10-05T09:42:13.258Z,11.00
2022-10-05T09:45:07.433Z,11.05
2022-10-05T09:47:41.365Z,12.20
2022-10-05T09:50:32.665Z,11.20
2022-10-05T09:53:35.080Z,10.15
2022-10-05T09:56:21.283Z,11.02
2022-10-05T09:59:09.770Z,9.57
2022-10-05T10:01:54.842Z,11.40
2022-10-05T10:04:50.372Z,11.30
2022-10-05T10:07:21.111Z,11.10
2022-10-05T10:09:59.818Z,23.10
2022-10-05T10:12:53.551Z,13.68
2022-10-05T10:15:32.079Z,11.63
2022-10-05T10:18:35.436Z,11.07
2022-10-05T10:21:17.235Z,11.15
2022-10-05T10:23:59.034Z,10.75
2022-10-05T10:26:59.636Z,11.98
2022-10-05T10:30:03.864Z,10.05
2022-10-05T10:33:15.464Z,10.27
2022-10-05T10:35:55.382Z,12.05
2022-10-05T10:38:30.918Z,10.35
2022-10-05T10:41:06.755Z,10.40
2022-10-05T10:43:51.598Z,10.15
2022-10-05T10:46:18.172Z,9.32
2022-10-05T10:49:29.815Z,9.75
2022-10-05T10:52:10.290Z,6.17
2022-10-05T10:54:42.702Z,6.50
2022-10-05T10:57:17.766Z,5.50
2022-10-05T11:00:03.608Z,5.25
2022-10-05T11:02:54.525Z,4.97
2022-10-05T11:05:50.281Z,5.47
2022-10-05T11:08:20.097Z,6.57
2022-10-05T11:11:22.514Z,5.72
2022-10-05T11:13:52.552Z,5.38
2022-10-05T11:16:25.052Z,5.18
2022-10-05T11:19:10.198Z,5.45
2022-10-05T11:22:14.822Z,5.88
2022-10-05T11:25:00.261Z,5.20
2022-10-05T11:27:50.197Z,5.05
2022-10-05T11:31:01.599Z,4.97
2022-10-05T11:33:52.704Z,5.07
2022-10-05T11:36:34.531Z,4.95
2022-10-05T11:39:30.438Z,4.63
2022-10-05T11:42:15.855Z,4.43
2022-10-05T11:45:06.111Z,5.45
2022-10-05T11:47:45.587Z,4.50
2022-10-05T11:50:26.749Z,4.43
2022-10-05T11:52:53.317Z,4.43
2022-10-05T11:55:29.394Z,4.85
2022-10-05T11:57:58.361Z,4.10
2022-10-05T12:00:27.817Z,4.65
2022-10-05T12:03:09.292Z,5.30
2022-10-05T12:06:21.855Z,4.28
2022-10-05T12:09:18.345Z,4.60
2022-10-05T12:12:08.882Z,4.75
2022-10-05T12:15:06.609Z,4.10
2022-10-05T12:17:52.400Z,5.30
2022-10-05T12:20:27.627Z,5.28
2022-10-05T12:23:13.804Z,4.72
2022-10-05T12:25:59.335Z,5.22
2022-10-05T12:28:50.744Z,5.38
2022-10-05T12:31:38.305Z,4.97
2022-10-05T12:34:29.938Z,5.28
2022-10-05T12:37:05.150Z,4.93
2022-10-05T12:39:55.327Z,5.43
2022-10-05T12:42:31.877Z,5.57
2022-10-05T12:45:54.362Z,5.63
2022-10-05T12:48:40.090Z,5.13
2022-10-05T12:51:19.120Z,6.07
2022-10-05T12:54:03.882Z,4.93
2022-10-05T12:56:44.384Z,6.20
2022-10-05T12:59:35.345Z,5.28
2022-10-05T13:02:20.645Z,5.03
2022-10-05T13:04:53.117Z,5.68
2022-10-05T13:07:45.202Z,5.45
2022-10-05T13:10:33.244Z,5.18
2022-10-05T13:13:26.321Z,5.65
2022-10-05T13:16:10.342Z,5.47
2022-10-05T13:18:56.025Z,6.22
2022-10-05T13:21:52.076Z,6.30
2022-10-05T13:24:23.438Z,6.38
2022-10-05T13:26:55.244Z,6.03
2022-10-05T13:32:08.693Z,6.00
2022-10-05T13:35:07.919Z,5.72
2022-10-05T13:38:02.876Z,5.80
2022-10-05T13:43:20.651Z,7.28
2022-10-05T13:46:17.493Z,7.28
2022-10-05T13:48:56.613Z,7.05
2022-10-05T13:51:47.099Z,5.95
2022-10-05T13:54:21.546Z,5.82
2022-10-05T13:57:33.617Z,5.07
2022-10-05T14:00:25.644Z,5.05
2022-10-05T14:02:57.036Z,5.30
2022-10-05T14:05:27.072Z,4.93
2022-10-05T14:08:17.141Z,5.78
2022-10-05T14:10:46.335Z,4.10
2022-10-05T14:13:13.389Z,4.47
2022-10-05T14:15:42.245Z,3.70
2022-10-05T14:18:24.847Z,3.25
2022-10-05T14:21:00.977Z,3.53
2022-10-05T14:23:27.984Z,4.13
2022-10-05T14:25:54.635Z,3.60
2022-10-05T14:28:33.241Z,4.60
2022-10-05T14:31:13.602Z,3.85
2022-10-05T14:33:40.968Z,3.88
2022-10-05T14:36:35.038Z,36.53
2022-10-05T14:39:04.993Z,3.80
2022-10-05T14:41:37.496Z,3.50
2022-10-05T14:44:21.781Z,4.00
2022-10-05T14:47:04.505Z,4.00
2022-10-05T14:49:36.116Z,4.18
2022-10-05T14:52:32.473Z,4.30
2022-10-05T14:55:11.149Z,4.72
2022-10-05T14:57:39.258Z,5.28
2022-10-05T15:00:16.990Z,24.58
2022-10-05T15:02:53.757Z,96.50
2022-10-05T15:05:39.360Z,13.23
2022-10-05T15:08:35.985Z,9.93
2022-10-05T15:11:49.229Z,11.13
2022-10-05T15:14:22.090Z,10.80
2022-10-05T15:16:52.947Z,10.57
2022-10-05T15:19:45.059Z,16.17
2022-10-05T15:22:41.254Z,10.73
2022-10-05T15:25:22.193Z,9.57
2022-10-05T15:28:04.082Z,12.73
2022-10-05T15:30:36.222Z,13.95
2022-10-05T15:33:28.873Z,10.90
2022-10-05T15:36:04.250Z,12.13
2022-10-05T15:39:00.355Z,9.20
2022-10-05T15:41:45.272Z,7.47
2022-10-05T15:44:29.780Z,7.90
2022-10-05T15:47:09.120Z,18.90
2022-10-05T15:50:11.657Z,14.65
2022-10-05T15:52:50.562Z,10.88
2022-10-05T15:59:38.692Z,5.47
2022-10-05T16:02:14.970Z,6.18
2022-10-05T16:09:36.449Z,9.63
2022-10-05T16:12:16.153Z,35.17
2022-10-05T16:14:42.771Z,38.17
2022-10-05T16:17:47.977Z,10.27
2022-10-05T16:20:27.072Z,59.25
2022-10-05T16:23:02.540Z,53.22
2022-10-05T16:26:00.225Z,58.35
2022-10-05T16:28:44.949Z,10.32
2022-10-05T16:33:54.423Z,9.05
2022-10-05T16:36:44.402Z,8.57
2022-10-05T16:39:20.458Z,122.22
2022-10-05T16:42:12.477Z,134.88
2022-10-05T16:44:52.561Z,64.80
2022-10-05T16:47:46.968Z,60.60
2022-10-05T16:50:22.206Z,131.95
2022-10-05T16:52:58.889Z,63.25
2022-10-05T16:55:38.677Z,30.95
2022-10-05T17:00:29.973Z,22.58
2022-10-05T17:03:24.716Z,78.13
2022-10-05T17:06:21.684Z,43.42
2022-10-05T17:09:07.013Z,126.78
2022-10-05T17:11:36.552Z,408.83
2022-10-05T17:14:20.184Z,241.00
2022-10-05T17:17:15.939Z,109.07
2022-10-05T17:20:00.618Z,81.68
2022-10-05T17:22:39.652Z,55.20
2022-10-05T17:25:24.154Z,45.53
2022-10-05T17:28:15.010Z,43.40
2022-10-05T17:30:50.399Z,19.48
2022-10-05T17:33:26.175Z,18.88
2022-10-05T17:36:17.936Z,23.13
2022-10-05T17:38:46.756Z,19.48
2022-10-05T17:41:30.311Z,57.00
2022-10-05T17:44:21.186Z,36.72
2022-10-05T17:46:50.038Z,26.50
2022-10-05T17:49:25.641Z,16.90
2022-10-05T17:52:10.892Z,11.63
2022-10-05T17:55:05.284Z,15.52
2022-10-05T17:57:33.906Z,11.93
2022-10-05T18:00:02.387Z,11.93
2022-10-05T18:02:40.564Z,11.98
2022-10-05T18:05:12.340Z,19.50
2022-10-05T18:07:40.593Z,17.55
2022-10-05T18:10:11.558Z,15.82
2022-10-05T18:13:07.580Z,18.65
2022-10-05T18:15:34.348Z,28.42
2022-10-05T18:18:32.953Z,32.35
2022-10-05T18:21:22.471Z,20.67
2022-10-05T18:24:14.369Z,11.80
2022-10-05T18:27:01.764Z,9.48
2022-10-05T18:30:05.246Z,7.25
2022-10-05T18:33:03.455Z,9.10
2022-10-05T18:35:53.253Z,10.57
2022-10-05T18:38:38.637Z,50.45
2022-10-05T18:41:24.103Z,42.85
2022-10-05T18:43:59.668Z,39.00
2022-10-05T18:46:26.506Z,46.75
2022-10-05T18:49:21.746Z,48.38
2022-10-05T18:51:52.180Z,50.78
2022-10-05T18:54:40.780Z,53.03
2022-10-05T18:57:31.746Z,68.10
2022-10-05T19:00:13.728Z,50.15
2022-10-05T19:02:45.005Z,41.28
2022-10-05T19:05:48.031Z,40.13
2022-10-05T19:08:46.590Z,50.88
2022-10-05T19:11:43.500Z,49.92
2022-10-05T19:14:24.249Z,48.08
2022-10-05T19:17:05.938Z,50.33
2022-10-05T19:20:15.331Z,65.15
2022-10-05T19:23:25.524Z,66.32
2022-10-05T19:25:59.664Z,65.90
2022-10-05T19:28:55.024Z,68.82
2022-10-05T19:31:37.896Z,65.47
2022-10-05T19:34:04.773Z,69.72
2022-10-05T19:37:04.478Z,70.65
2022-10-05T19:40:12.346Z,70.15
2022-10-05T19:42:59.549Z,71.72
2022-10-05T19:45:29.334Z,75.45
2022-10-05T19:48:28.354Z,76.88
2022-10-05T19:50:58.531Z,77.35
2022-10-05T19:53:38.018Z,80.70
2022-10-05T19:56:20.739Z,115.60
2022-10-05T19:58:49.615Z,201.57
2022-10-05T20:01:27.263Z,258.35
2022-10-05T20:03:54.009Z,105.90
2022-10-05T20:06:22.542Z,44.40
2022-10-05T20:08:51.869Z,25.33
2022-10-05T20:11:22.516Z,20.98
2022-10-05T20:13:52.146Z,22.75
2022-10-05T20:16:45.479Z,29.08
2022-10-05T20:19:50.720Z,67.72
2022-10-05T20:22:34.144Z,99.07
2022-10-05T20:25:07.239Z,91.90
2022-10-05T20:27:47.691Z,76.20
2022-10-05T20:30:20.103Z,72.75
2022-10-05T20:32:51.622Z,67.25
2022-10-05T20:35:22.127Z,68.53
2022-10-05T20:37:52.161Z,76.32
2022-10-05T20:40:21.853Z,74.90
2022-10-05T20:42:48.375Z,76.82
2022-10-05T20:45:15.098Z,77.97
2022-10-05T20:47:42.289Z,72.68
2022-10-05T20:50:10.332Z,68.22
2022-10-05T20:52:37.616Z,70.03
2022-10-05T20:55:07.516Z,72.30
2022-10-05T20:57:34.393Z,73.05
2022-10-05T21:00:01.677Z,72.60
2022-10-05T21:02:28.636Z,81.70
2022-10-05T21:04:55.135Z,78.28
2022-10-05T21:07:22.253Z,75.43
2022-10-05T21:09:49.055Z,76.05
2022-10-05T21:12:18.493Z,77.03
2022-10-05T21:14:45.717Z,103.28
2022-10-05T21:17:12.459Z,121.75
2022-10-05T21:19:40.209Z,112.88
2022-10-05T21:22:08.549Z,69.15
2022-10-05T21:24:41.735Z,87.93
2022-10-05T21:27:10.116Z,93.50
2022-10-05T21:29:36.999Z,103.10
2022-10-05T21:32:08.324Z,72.60
2022-10-05T21:34:35.286Z,58.83
2022-10-05T21:37:01.848Z,53.67
2022-10-05T21:39:28.445Z,51.63
2022-10-05T21:44:24.058Z,54.20
2022-10-05T21:46:51.656Z,69.55
2022-10-05T21:49:19.881Z,67.78
2022-10-05T21:51:47.652Z,66.38
2022-10-05T21:54:17.365Z,58.78
2022-10-05T21:56:47.596Z,57.53
2022-10-05T21:59:18.741Z,67.10
2022-10-05T22:01:45.896Z,47.73
2022-10-05T22:04:12.859Z,60.78
2022-10-05T22:06:40.309Z,62.80
2022-10-05T22:09:07.756Z,66.30
2022-10-05T22:11:34.459Z,65.10
2022-10-05T22:14:03.798Z,58.15
2022-10-05T22:16:33.365Z,52.75
2022-10-05T22:19:05.236Z,49.85
2022-10-05T22:21:37.732Z,42.13
2022-10-05T22:24:04.495Z,37.92
2022-10-05T22:26:31.211Z,31.75
2022-10-05T22:28:57.911Z,31.13
2022-10-05T22:31:24.700Z,38.28
2022-10-05T22:33:51.457Z,33.33
2022-10-05T22:36:19.103Z,30.40
2022-10-05T22:38:47.464Z,26.42
2022-10-05T22:41:18.095Z,29.00
2022-10-05T22:43:45.097Z,27.27
2022-10-05T22:46:13.295Z,31.13
2022-10-05T22:48:40.297Z,30.73
2022-10-05T22:51:07.781Z,33.85
2022-10-05T22:53:34.867Z,33.22
2022-10-05T22:56:10.572Z,34.00
2022-10-05T22:58:38.787Z,35.10
2022-10-05T23:01:08.460Z,31.17
2022-10-05T23:03:35.468Z,29.20
2022-10-05T23:06:05.275Z,29.45
2022-10-05T23:08:33.009Z,37.72
2022-10-05T23:11:19.125Z,35.58
2022-10-05T23:13:46.057Z,35.17
2022-10-05T23:16:17.714Z,28.35
2022-10-05T23:18:45.170Z,24.88
2022-10-05T23:21:11.716Z,23.40
2022-10-05T23:23:40.449Z,18.67
2022-10-05T23:26:09.272Z,16.70
2022-10-05T23:28:36.326Z,17.75
2022-10-05T23:31:08.205Z,14.70
2022-10-05T23:33:35.757Z,15.52
2022-10-05T23:36:05.225Z,21.15
2022-10-05T23:38:32.511Z,22.10
2022-10-05T23:40:59.827Z,21.65
2022-10-05T23:43:27.522Z,20.08
2022-10-05T23:45:55.319Z,18.80
2022-10-05T23:48:22.542Z,22.45
2022-10-05T23:50:50.073Z,21.02
2022-10-05T23:53:17.968Z,19.05
2022-10-05T23:55:44.915Z,20.52
2022-10-05T23:58:12.299Z,23.15
